createdAt,value
2018-05-11T00:02:32.074Z,10.73
2018-05-11T00:05:07.046Z,10.87
2018-05-11T00:07:41.322Z,10.83
2018-05-11T00:10:15.228Z,10.93
2018-05-11T00:12:49.341Z,10.97
2018-05-11T00:15:23.386Z,11.20
2018-05-11T00:17:59.309Z,12.13
2018-05-11T00:20:34.054Z,12.17
2018-05-11T00:23:08.144Z,11.50
2018-05-11T00:25:41.987Z,11.97
2018-05-11T00:28:16.928Z,12.17
2018-05-11T00:30:51.053Z,12.57
2018-05-11T00:33:25.063Z,12.27
2018-05-11T00:35:59.212Z,10.53
2018-05-11T00:38:33.256Z,10.83
2018-05-11T00:41:07.333Z,10.93
2018-05-11T00:43:41.172Z,10.73
2018-05-11T00:46:15.108Z,11.33
2018-05-11T00:48:48.951Z,12.20
2018-05-11T00:51:22.959Z,11.37
2018-05-11T00:53:57.687Z,12.57
2018-05-11T00:56:31.564Z,11.23
2018-05-11T00:59:06.525Z,11.13
2018-05-11T01:01:41.500Z,11.90
2018-05-11T01:04:24.520Z,11.33
2018-05-11T01:06:58.633Z,11.67
2018-05-11T01:09:32.951Z,11.27
2018-05-11T01:12:06.914Z,11.07
2018-05-11T01:14:49.064Z,11.50
2018-05-11T01:17:22.902Z,12.43
2018-05-11T01:19:58.551Z,12.13
2018-05-11T01:22:33.497Z,11.33
2018-05-11T01:25:08.591Z,11.90
2018-05-11T01:27:42.642Z,13.87
2018-05-11T01:30:16.652Z,14.10
2018-05-11T01:32:50.353Z,12.73
2018-05-11T01:35:24.526Z,12.43
2018-05-11T01:37:59.352Z,15.90
2018-05-11T01:40:33.681Z,14.33
2018-05-11T01:43:07.698Z,12.57
2018-05-11T01:45:41.908Z,14.57
2018-05-11T01:48:15.986Z,14.70
2018-05-11T01:50:50.773Z,13.23
2018-05-11T01:53:25.474Z,14.57
2018-05-11T01:55:59.456Z,15.43
2018-05-11T01:58:33.500Z,14.10
2018-05-11T02:01:07.920Z,15.40
2018-05-11T02:03:41.828Z,15.40
2018-05-11T02:06:17.786Z,14.27
2018-05-11T02:08:52.202Z,14.23
2018-05-11T02:11:26.421Z,13.57
2018-05-11T02:14:02.276Z,12.87
2018-05-11T02:16:36.245Z,11.80
2018-05-11T02:19:10.295Z,11.77
2018-05-11T02:21:45.024Z,12.50
2018-05-11T02:24:19.039Z,13.53
2018-05-11T02:26:53.221Z,13.60
2018-05-11T02:29:27.771Z,14.07
2018-05-11T02:32:01.970Z,15.10
2018-05-11T02:34:36.100Z,15.80
2018-05-11T02:37:10.926Z,15.60
2018-05-11T02:39:45.106Z,15.83
2018-05-11T02:42:19.329Z,14.67
2018-05-11T02:44:53.240Z,14.43
2018-05-11T02:47:27.378Z,14.57
2018-05-11T02:50:02.324Z,13.97
2018-05-11T02:52:36.315Z,14.50
2018-05-11T02:55:10.704Z,15.63
2018-05-11T02:57:44.843Z,15.50
2018-05-11T03:00:18.956Z,15.00
2018-05-11T03:02:53.692Z,14.73
2018-05-11T03:05:27.926Z,15.10
2018-05-11T03:08:02.346Z,14.90
2018-05-11T03:10:37.200Z,15.13
2018-05-11T03:13:11.269Z,14.40
2018-05-11T03:15:45.369Z,13.97
2018-05-11T03:18:20.309Z,14.80
2018-05-11T03:20:54.247Z,14.60
2018-05-11T03:23:29.004Z,13.33
2018-05-11T03:26:04.079Z,13.47
2018-05-11T03:28:38.145Z,14.97
2018-05-11T03:31:12.220Z,14.43
2018-05-11T03:33:46.147Z,14.40
2018-05-11T03:36:20.000Z,13.90
2018-05-11T03:38:53.926Z,15.73
2018-05-11T03:41:27.974Z,14.67
2018-05-11T03:44:03.520Z,15.40
2018-05-11T03:46:37.504Z,16.23
2018-05-11T03:49:11.616Z,15.87
2018-05-11T03:51:45.386Z,16.27
2018-05-11T03:54:23.353Z,14.63
2018-05-11T03:56:58.087Z,16.17
2018-05-11T03:59:32.841Z,16.37
2018-05-11T04:02:18.991Z,17.50
2018-05-11T04:05:04.895Z,16.67
2018-05-11T04:07:50.993Z,16.90
2018-05-11T04:10:26.232Z,14.87
2018-05-11T04:13:00.753Z,15.50
2018-05-11T04:15:35.174Z,15.70
2018-05-11T04:18:10.620Z,15.30
2018-05-11T04:20:44.856Z,14.60
2018-05-11T04:23:18.652Z,13.77
2018-05-11T04:25:52.590Z,14.10
2018-05-11T04:28:28.130Z,15.07
2018-05-11T04:31:03.337Z,14.67
2018-05-11T04:33:37.412Z,14.60
2018-05-11T04:36:12.280Z,14.13
2018-05-11T04:38:48.244Z,16.60
2018-05-11T04:41:22.204Z,17.63
2018-05-11T04:43:56.303Z,15.83
2018-05-11T04:46:31.069Z,17.07
2018-05-11T04:49:05.179Z,17.57
2018-05-11T04:51:39.209Z,18.27
2018-05-11T04:54:13.320Z,17.63
2018-05-11T04:56:47.526Z,17.37
2018-05-11T04:59:21.338Z,16.70
2018-05-11T05:01:55.449Z,17.03
2018-05-11T05:04:29.459Z,17.70
2018-05-11T05:07:03.445Z,17.43
2018-05-11T05:09:37.682Z,17.60
2018-05-11T05:12:11.692Z,17.87
2018-05-11T05:14:45.601Z,15.87
2018-05-11T05:17:19.820Z,16.27
2018-05-11T05:19:53.916Z,15.97
2018-05-11T05:22:27.832Z,15.30
2018-05-11T05:25:01.873Z,14.23
2018-05-11T05:27:35.883Z,14.27
2018-05-11T05:30:09.858Z,13.37
2018-05-11T05:32:43.845Z,13.13
2018-05-11T05:35:17.814Z,12.33
2018-05-11T05:37:51.758Z,10.33
2018-05-11T05:40:26.552Z,9.60
2018-05-11T05:43:00.494Z,9.30
2018-05-11T05:45:34.515Z,9.50
2018-05-11T05:48:08.484Z,9.43
2018-05-11T05:50:42.609Z,8.50
2018-05-11T05:53:16.956Z,8.07
2018-05-11T05:55:50.790Z,8.77
2018-05-11T05:58:24.700Z,7.60
2018-05-11T06:00:58.561Z,7.57
2018-05-11T06:03:33.482Z,7.77
2018-05-11T06:06:07.870Z,7.93
2018-05-11T06:08:42.045Z,8.93
2018-05-11T06:11:16.793Z,7.80
2018-05-11T06:13:51.858Z,8.70
2018-05-11T06:16:25.731Z,7.97
2018-05-11T06:19:00.196Z,7.40
2018-05-11T06:21:35.080Z,7.37
2018-05-11T06:24:09.146Z,7.43
2018-05-11T06:26:43.910Z,7.60
2018-05-11T06:29:18.061Z,7.23
2018-05-11T06:31:52.603Z,6.40
2018-05-11T06:34:26.768Z,6.53
2018-05-11T06:37:01.522Z,6.77
2018-05-11T06:39:36.711Z,6.83
2018-05-11T06:42:10.594Z,7.70
2018-05-11T06:44:44.539Z,6.43
2018-05-11T06:47:18.306Z,6.57
2018-05-11T06:49:52.076Z,6.57
2018-05-11T06:52:26.709Z,7.13
2018-05-11T06:55:00.587Z,7.17
2018-05-11T06:57:34.424Z,6.30
2018-05-11T07:00:08.553Z,6.10
2018-05-11T07:02:43.164Z,6.50
2018-05-11T07:05:17.816Z,7.20
2018-05-11T07:07:53.933Z,6.37
2018-05-11T07:10:28.669Z,6.20
2018-05-11T07:13:03.627Z,7.30
2018-05-11T07:15:37.701Z,7.30
2018-05-11T07:18:11.532Z,6.73
2018-05-11T07:20:45.761Z,6.00
2018-05-11T07:23:19.661Z,6.63
2018-05-11T07:25:53.427Z,6.00
2018-05-11T07:28:27.213Z,5.43
2018-05-11T07:31:01.127Z,5.40
2018-05-11T07:33:34.869Z,6.20
2018-05-11T07:36:08.729Z,4.90
2018-05-11T07:38:42.564Z,5.73
2018-05-11T07:41:10.765Z,5.30
2018-05-11T07:43:39.712Z,4.83
2018-05-11T07:46:08.009Z,5.60
2018-05-11T07:48:36.232Z,5.37
2018-05-11T07:51:04.507Z,5.27
2018-05-11T07:53:32.643Z,4.40
2018-05-11T07:56:01.625Z,4.30
2018-05-11T07:58:29.826Z,4.00
2018-05-11T08:00:58.042Z,3.20
2018-05-11T08:03:26.234Z,3.35
2018-05-11T08:05:54.441Z,3.40
2018-05-11T08:08:22.694Z,3.50
2018-05-11T08:10:50.877Z,3.30
2018-05-11T08:13:20.269Z,3.20
2018-05-11T08:15:48.454Z,3.63
2018-05-11T08:18:17.439Z,3.77
2018-05-11T08:20:45.677Z,2.70
2018-05-11T08:23:13.854Z,2.77
2018-05-11T08:25:42.109Z,3.07
2018-05-11T08:28:10.347Z,3.17
2018-05-11T08:30:39.370Z,3.23
2018-05-11T08:33:07.654Z,3.00
2018-05-11T08:35:36.601Z,2.73
2018-05-11T08:38:05.648Z,2.87
2018-05-11T08:40:33.861Z,3.30
2018-05-11T08:43:03.218Z,3.67
2018-05-11T08:45:31.460Z,3.53
2018-05-11T08:47:59.647Z,3.93
2018-05-11T08:50:27.860Z,3.40
2018-05-11T08:52:56.068Z,3.63
2018-05-11T08:55:24.904Z,3.33
2018-05-11T08:57:53.613Z,3.47
2018-05-11T09:00:22.016Z,3.50
2018-05-11T09:02:50.447Z,3.47
2018-05-11T09:05:18.784Z,3.37
2018-05-11T09:07:47.044Z,3.40
2018-05-11T09:10:15.254Z,3.27
2018-05-11T09:12:43.535Z,3.00
2018-05-11T09:15:11.725Z,3.77
2018-05-11T09:17:39.929Z,3.57
2018-05-11T09:20:08.173Z,3.73
2018-05-11T09:22:37.186Z,3.20
2018-05-11T09:25:05.361Z,3.57
2018-05-11T09:27:33.588Z,3.57
2018-05-11T09:30:01.812Z,3.40
2018-05-11T09:32:30.036Z,3.10
2018-05-11T09:34:58.219Z,3.00
2018-05-11T09:37:26.394Z,3.47
2018-05-11T09:39:54.596Z,3.30
2018-05-11T09:42:22.783Z,2.90
2018-05-11T09:44:51.746Z,3.13
2018-05-11T09:47:19.994Z,3.30
2018-05-11T09:49:48.209Z,3.07
2018-05-11T09:52:16.435Z,3.60
2018-05-11T09:54:44.728Z,2.93
2018-05-11T09:57:12.976Z,3.87
2018-05-11T09:59:42.246Z,3.20
2018-05-11T10:02:10.487Z,3.70
2018-05-11T10:04:38.667Z,2.93
2018-05-11T10:07:06.892Z,3.13
2018-05-11T10:09:35.124Z,3.27
2018-05-11T10:12:03.924Z,3.50
2018-05-11T10:14:32.153Z,3.63
2018-05-11T10:17:00.583Z,3.53
2018-05-11T10:19:28.818Z,3.53
2018-05-11T10:21:57.029Z,3.37
2018-05-11T10:24:25.992Z,3.57
2018-05-11T10:26:54.220Z,3.67
2018-05-11T10:29:22.486Z,4.00
2018-05-11T10:31:50.707Z,3.57
2018-05-11T10:34:18.930Z,3.50
2018-05-11T10:36:47.162Z,3.03
2018-05-11T10:39:15.538Z,3.67
2018-05-11T10:41:43.771Z,3.80
2018-05-11T10:44:11.964Z,4.07
2018-05-11T10:46:40.248Z,3.60
2018-05-11T10:49:08.476Z,4.37
2018-05-11T10:51:36.708Z,3.90
2018-05-11T10:54:04.892Z,4.57
2018-05-11T10:56:33.179Z,4.40
2018-05-11T10:59:02.176Z,3.87
2018-05-11T11:01:31.118Z,4.63
2018-05-11T11:03:59.403Z,4.27
2018-05-11T11:06:27.635Z,4.23
2018-05-11T11:08:55.808Z,4.27
2018-05-11T11:11:24.014Z,4.37
2018-05-11T11:13:52.219Z,4.30
2018-05-11T11:16:20.433Z,4.40
2018-05-11T11:18:48.668Z,4.70
2018-05-11T11:21:16.923Z,3.73
2018-05-11T11:23:45.168Z,4.37
2018-05-11T11:26:13.358Z,4.73
2018-05-11T11:28:41.577Z,4.43
2018-05-11T11:31:10.522Z,4.27
2018-05-11T11:33:38.771Z,3.67
2018-05-11T11:36:06.957Z,3.63
2018-05-11T11:38:35.165Z,4.17
2018-05-11T11:41:03.391Z,4.27
2018-05-11T11:43:31.580Z,3.87
2018-05-11T11:45:59.830Z,4.00
2018-05-11T11:48:28.064Z,3.63
2018-05-11T11:50:56.263Z,4.17
2018-05-11T11:53:25.297Z,4.00
2018-05-11T11:55:53.879Z,4.73
2018-05-11T11:58:22.329Z,3.60
2018-05-11T12:00:50.530Z,3.83
2018-05-11T12:03:18.801Z,4.43
2018-05-11T12:05:47.034Z,4.13
2018-05-11T12:08:16.027Z,3.73
2018-05-11T12:10:44.995Z,4.27
2018-05-11T12:13:13.372Z,4.47
2018-05-11T12:15:41.857Z,4.90
2018-05-11T12:18:10.841Z,4.30
2018-05-11T12:20:39.031Z,4.60
2018-05-11T12:23:08.213Z,4.40
2018-05-11T12:25:36.380Z,4.10
2018-05-11T12:28:04.601Z,4.23
2018-05-11T12:30:34.372Z,5.37
2018-05-11T12:33:02.626Z,4.80
2018-05-11T12:35:30.867Z,5.00
2018-05-11T12:37:59.124Z,4.60
2018-05-11T12:40:28.089Z,4.77
2018-05-11T12:42:56.304Z,4.60
2018-05-11T12:45:24.518Z,4.83
2018-05-11T12:47:52.720Z,5.50
2018-05-11T12:50:21.688Z,5.37
2018-05-11T12:52:49.935Z,4.83
2018-05-11T12:55:18.101Z,4.40
2018-05-11T12:57:46.330Z,4.90
2018-05-11T13:00:15.319Z,5.00
2018-05-11T13:02:44.274Z,5.43
2018-05-11T13:05:12.469Z,5.70
2018-05-11T13:07:40.687Z,6.17
2018-05-11T13:10:09.754Z,6.60
2018-05-11T13:12:38.735Z,5.70
2018-05-11T13:15:06.992Z,4.87
2018-05-11T13:17:35.309Z,5.37
2018-05-11T13:20:03.533Z,4.97
2018-05-11T13:22:31.758Z,6.23
2018-05-11T13:24:59.965Z,5.43
2018-05-11T13:27:28.183Z,5.87
2018-05-11T13:29:56.358Z,6.37
2018-05-11T13:32:24.601Z,5.30
2018-05-11T13:34:52.894Z,5.77
2018-05-11T13:37:21.095Z,5.50
2018-05-11T13:39:49.303Z,5.17
2018-05-11T13:42:17.506Z,5.90
2018-05-11T13:44:45.789Z,6.53
2018-05-11T13:47:14.075Z,6.13
2018-05-11T13:49:43.134Z,5.60
2018-05-11T13:52:12.061Z,6.13
2018-05-11T13:54:41.073Z,5.73
2018-05-11T13:57:10.137Z,6.27
2018-05-11T13:59:38.305Z,6.43
2018-05-11T14:02:06.541Z,6.03
2018-05-11T14:04:34.811Z,6.10
2018-05-11T14:07:02.940Z,6.40
2018-05-11T14:09:31.902Z,5.50
2018-05-11T14:12:00.173Z,6.23
2018-05-11T14:14:28.391Z,6.93
2018-05-11T14:16:57.341Z,6.30
2018-05-11T14:19:25.551Z,6.47
2018-05-11T14:21:54.562Z,6.93
2018-05-11T14:24:22.746Z,5.97
2018-05-11T14:26:50.964Z,6.73
2018-05-11T14:29:19.167Z,6.47
2018-05-11T14:31:51.000Z,7.23
2018-05-11T14:34:20.505Z,6.57
2018-05-11T14:36:48.694Z,6.93
2018-05-11T14:39:17.135Z,6.67
2018-05-11T14:41:45.234Z,6.10
2018-05-11T14:44:14.184Z,6.43
2018-05-11T14:46:42.390Z,6.80
2018-05-11T14:49:10.639Z,6.87
2018-05-11T14:51:38.821Z,6.40
2018-05-11T14:54:07.013Z,7.23
2018-05-11T14:56:35.255Z,7.30
2018-05-11T14:59:03.454Z,7.47
2018-05-11T15:01:31.688Z,7.23
2018-05-11T15:03:59.899Z,7.47
2018-05-11T15:06:28.074Z,7.77
2018-05-11T15:08:56.253Z,7.43
2018-05-11T15:11:25.256Z,6.90
2018-05-11T15:13:54.345Z,8.10
2018-05-11T15:16:23.317Z,7.83
2018-05-11T15:18:51.695Z,7.43
2018-05-11T15:21:19.922Z,7.30
2018-05-11T15:23:48.117Z,7.97
2018-05-11T15:26:16.295Z,8.90
2018-05-11T15:28:44.469Z,8.13
2018-05-11T15:31:12.816Z,8.33
2018-05-11T15:33:40.999Z,9.43
2018-05-11T15:36:09.314Z,7.37
2018-05-11T15:38:38.321Z,8.37
2018-05-11T15:41:07.303Z,5.67
2018-05-11T15:43:35.574Z,6.77
2018-05-11T15:46:03.816Z,6.37
2018-05-11T15:48:32.106Z,6.97
2018-05-11T15:51:01.143Z,7.53
2018-05-11T15:53:30.130Z,6.43
2018-05-11T15:55:59.111Z,7.47
2018-05-11T15:58:27.288Z,5.77
2018-05-11T16:00:56.247Z,5.87
2018-05-11T16:03:24.438Z,8.00
2018-05-11T16:05:52.685Z,7.37
2018-05-11T16:08:20.995Z,7.03
2018-05-11T16:10:49.215Z,7.63
2018-05-11T16:13:18.400Z,5.73
2018-05-11T16:15:46.691Z,5.77
2018-05-11T16:18:14.910Z,8.37
2018-05-11T16:20:43.584Z,9.57
2018-05-11T16:23:11.813Z,8.70
2018-05-11T16:25:40.006Z,9.10
2018-05-11T16:28:08.219Z,9.80
2018-05-11T16:30:37.299Z,8.83
2018-05-11T16:33:05.550Z,9.40
2018-05-11T16:35:33.787Z,8.53
2018-05-11T16:38:02.034Z,9.90
2018-05-11T16:40:31.410Z,9.10
2018-05-11T16:42:59.601Z,8.50
2018-05-11T16:45:27.788Z,8.90
2018-05-11T16:47:57.671Z,9.80
2018-05-11T16:50:26.022Z,8.97
2018-05-11T16:52:54.195Z,10.00
2018-05-11T16:55:22.399Z,10.87
2018-05-11T16:57:51.119Z,10.07
2018-05-11T17:00:19.367Z,9.37
2018-05-11T17:02:48.353Z,9.47
2018-05-11T17:05:16.567Z,9.40
2018-05-11T17:07:45.588Z,10.60
2018-05-11T17:10:13.857Z,10.63
2018-05-11T17:12:42.059Z,10.53
2018-05-11T17:15:11.019Z,10.53
2018-05-11T17:17:39.231Z,9.77
2018-05-11T17:20:08.261Z,10.50
2018-05-11T17:22:37.247Z,9.90
2018-05-11T17:25:06.265Z,9.13
2018-05-11T17:27:34.537Z,8.97
2018-05-11T17:30:02.844Z,9.30
2018-05-11T17:32:30.979Z,9.90
2018-05-11T17:34:59.255Z,9.50
2018-05-11T17:37:27.486Z,10.30
2018-05-11T17:39:56.523Z,10.90
2018-05-11T17:42:24.739Z,11.63
2018-05-11T17:44:53.786Z,10.47
2018-05-11T17:47:22.026Z,12.33
2018-05-11T17:49:51.051Z,13.07
2018-05-11T17:52:19.280Z,14.20
2018-05-11T17:54:47.478Z,15.53
2018-05-11T17:57:16.483Z,16.73
2018-05-11T17:59:45.510Z,16.43
2018-05-11T18:02:13.709Z,16.40
2018-05-11T18:04:41.965Z,17.53
2018-05-11T18:07:10.294Z,16.80
2018-05-11T18:09:39.574Z,17.23
2018-05-11T18:12:08.596Z,17.43
2018-05-11T18:14:37.561Z,19.00
2018-05-11T18:17:05.865Z,19.03
2018-05-11T18:19:34.174Z,18.77
2018-05-11T18:22:03.371Z,19.37
2018-05-11T18:24:31.592Z,19.83
2018-05-11T18:27:00.664Z,19.57
2018-05-11T18:29:28.880Z,19.30
2018-05-11T18:31:57.856Z,20.47
2018-05-11T18:34:29.742Z,21.10
2018-05-11T18:36:57.985Z,20.40
2018-05-11T18:39:26.568Z,20.33
2018-05-11T18:41:54.844Z,20.83
2018-05-11T18:44:23.145Z,20.20
2018-05-11T18:46:51.761Z,20.07
2018-05-11T18:49:21.308Z,20.63
2018-05-11T18:51:50.366Z,22.13
2018-05-11T18:54:18.809Z,24.33
2018-05-11T18:56:47.571Z,24.53
2018-05-11T18:59:15.788Z,25.60
2018-05-11T19:01:48.212Z,27.83
2018-05-11T19:04:17.697Z,28.93
2018-05-11T19:06:45.965Z,29.43
2018-05-11T19:09:14.207Z,30.60
2018-05-11T19:11:42.397Z,31.07
2018-05-11T19:14:10.605Z,30.70
2018-05-11T19:16:39.649Z,31.53
2018-05-11T19:19:07.874Z,32.70
2018-05-11T19:21:36.254Z,30.57
2018-05-11T19:24:04.502Z,31.77
2018-05-11T19:26:32.756Z,32.57
2018-05-11T19:29:00.952Z,31.33
2018-05-11T19:31:29.198Z,32.53
2018-05-11T19:33:57.444Z,32.07
2018-05-11T19:36:25.639Z,32.03
2018-05-11T19:38:53.855Z,32.83
2018-05-11T19:41:22.817Z,32.90
2018-05-11T19:43:51.018Z,34.03
2018-05-11T19:46:19.981Z,33.03
2018-05-11T19:48:48.280Z,32.67
2018-05-11T19:51:17.318Z,32.30
2018-05-11T19:53:45.561Z,33.83
2018-05-11T19:56:14.542Z,34.17
2018-05-11T19:58:43.648Z,34.07
2018-05-11T20:01:13.647Z,34.07
2018-05-11T20:03:41.880Z,34.67
2018-05-11T20:06:10.085Z,34.13
2018-05-11T20:08:38.268Z,34.50
2018-05-11T20:11:07.305Z,35.17
2018-05-11T20:13:35.511Z,35.00
2018-05-11T20:16:03.721Z,36.63
2018-05-11T20:18:32.745Z,35.13
2018-05-11T20:21:00.921Z,35.63
2018-05-11T20:23:30.729Z,35.33
2018-05-11T20:25:58.993Z,35.77
2018-05-11T20:28:27.207Z,37.00
2018-05-11T20:30:55.461Z,35.40
2018-05-11T20:33:24.715Z,36.83
2018-05-11T20:35:53.677Z,33.97
2018-05-11T20:38:22.033Z,33.90
2018-05-11T20:40:50.227Z,34.23
2018-05-11T20:43:18.490Z,35.43
2018-05-11T20:45:47.086Z,35.47
2018-05-11T20:50:50.908Z,35.10
2018-05-11T20:53:19.087Z,37.63
2018-05-11T20:55:47.382Z,35.83
2018-05-11T20:58:18.344Z,34.40
2018-05-11T21:00:47.222Z,35.60
2018-05-11T21:03:16.007Z,35.87
2018-05-11T21:05:45.243Z,34.17
2018-05-11T21:08:13.611Z,35.53
2018-05-11T21:10:42.172Z,34.90
2018-05-11T21:13:30.420Z,33.27
2018-05-11T21:15:59.130Z,33.37
2018-05-11T21:18:28.602Z,33.70
2018-05-11T21:20:57.575Z,33.47
2018-05-11T21:23:25.773Z,35.07
2018-05-11T21:25:54.146Z,35.80
2018-05-11T21:28:23.427Z,37.13
2018-05-11T21:30:52.150Z,34.47
2018-05-11T21:33:21.755Z,34.03
2018-05-11T21:35:51.515Z,35.03
2018-05-11T21:38:20.768Z,34.93
2018-05-11T21:40:49.727Z,35.50
2018-05-11T21:43:18.138Z,36.47
2018-05-11T21:45:46.644Z,38.60
2018-05-11T21:48:15.844Z,36.57
2018-05-11T21:50:50.410Z,36.87
2018-05-11T21:53:19.966Z,35.80
2018-05-11T21:55:50.413Z,36.17
2018-05-11T21:58:19.015Z,35.47
2018-05-11T22:00:49.307Z,36.67
2018-05-11T22:03:18.621Z,36.10
2018-05-11T22:05:47.472Z,35.60
2018-05-11T22:08:15.744Z,36.53
2018-05-11T22:10:44.226Z,36.23
2018-05-11T22:13:13.908Z,34.93
2018-05-11T22:15:46.122Z,36.83
2018-05-11T22:18:15.340Z,35.73
2018-05-11T22:20:44.343Z,35.17
2018-05-11T22:23:13.493Z,35.00
2018-05-11T22:25:41.732Z,33.97
2018-05-11T22:28:09.973Z,34.73
2018-05-11T22:30:39.104Z,34.97
2018-05-11T22:33:07.330Z,34.50
2018-05-11T22:35:35.515Z,35.30
2018-05-11T22:38:04.637Z,34.63
2018-05-11T22:40:33.114Z,33.37
2018-05-11T22:43:02.089Z,33.20
2018-05-11T22:45:31.165Z,36.23
2018-05-11T22:47:59.456Z,33.60
2018-05-11T22:50:36.562Z,34.67
2018-05-11T22:53:05.758Z,33.87
2018-05-11T22:55:33.987Z,32.30
2018-05-11T22:58:06.339Z,33.07
2018-05-11T23:00:43.027Z,31.60
2018-05-11T23:03:11.301Z,33.00
2018-05-11T23:05:39.758Z,32.27
2018-05-11T23:08:08.760Z,31.40
2018-05-11T23:10:37.088Z,32.90
2018-05-11T23:13:05.477Z,31.77
2018-05-11T23:15:33.777Z,32.83
2018-05-11T23:18:02.142Z,32.37
2018-05-11T23:20:30.476Z,31.77
2018-05-11T23:22:59.814Z,31.13
2018-05-11T23:25:28.122Z,33.20
2018-05-11T23:27:56.361Z,32.37
2018-05-11T23:30:24.594Z,31.90
2018-05-11T23:32:53.522Z,31.57
2018-05-11T23:35:21.762Z,33.43
2018-05-11T23:37:50.883Z,32.60
2018-05-11T23:40:19.135Z,33.47
2018-05-11T23:42:48.162Z,31.97
2018-05-11T23:45:16.462Z,33.23
2018-05-11T23:47:50.446Z,30.30
2018-05-11T23:50:24.230Z,31.97
2018-05-11T23:52:59.378Z,30.27
2018-05-11T23:55:33.349Z,29.03
2018-05-11T23:58:07.201Z,32.00
